Time,TemperatureF,DewpointF,PressureIn,WindDirection,WindDirectionDegrees,WindSpeedMPH,WindSpeedGustMPH,Humidity,HourlyPrecipIn,Conditions,Clouds,dailyrainin,SoftwareType,DateUTC
2013-07-22 00:00:00,66.0,62.0,18.34,ENE,71,0.0,5.0,87,0.00,,,0.00,Wunderground v.1.15,2013-07-22 04:00:00,
2013-07-22 00:05:00,66.0,62.3,18.34,ENE,76,2.0,5.0,88,0.00,,,0.00,Wunderground v.1.15,2013-07-22 04:05:00,
2013-07-22 00:10:00,66.1,62.4,18.34,ENE,76,1.0,1.0,88,0.00,,,0.00,Wunderground v.1.15,2013-07-22 04:10:00,
2013-07-22 00:15:00,66.0,62.3,18.34,ENE,76,0.0,1.0,88,0.00,,,0.00,Wunderground v.1.15,2013-07-22 04:15:00,
2013-07-22 00:25:00,65.8,62.5,18.34,ENE,76,0.0,0.0,89,0.00,,,0.00,Wunderground v.1.15,2013-07-22 04:25:00,
2013-07-22 00:30:00,65.6,62.3,18.34,ENE,76,0.0,0.0,89,0.00,,,0.00,Wunderground v.1.15,2013-07-22 04:30:00,
2013-07-22 00:35:00,65.4,62.1,18.34,ENE,76,0.0,4.0,89,0.00,,,0.00,Wunderground v.1.15,2013-07-22 04:35:00,
2013-07-22 00:40:00,65.3,62.0,18.34,ENE,76,0.0,4.0,89,0.00,,,0.00,Wunderground v.1.15,2013-07-22 04:40:00,
2013-07-22 00:45:00,65.2,62.2,18.34,ENE,76,0.0,4.0,90,0.00,,,0.00,Wunderground v.1.15,2013-07-22 04:45:00,
2013-07-22 00:55:00,64.9,61.9,18.34,ENE,76,0.0,4.0,90,0.00,,,0.00,Wunderground v.1.15,2013-07-22 04:55:00,
2013-07-22 01:00:00,64.8,61.8,18.34,ENE,76,0.0,0.0,90,0.00,,,0.00,Wunderground v.1.15,2013-07-22 05:00:00,
2013-07-22 01:10:00,64.5,61.5,18.34,ENE,76,0.0,0.0,90,0.00,,,0.00,Wunderground v.1.15,2013-07-22 05:10:00,
2013-07-22 01:20:00,64.4,61.4,18.34,ENE,76,0.0,0.0,90,0.00,,,0.00,Wunderground v.1.15,2013-07-22 05:20:00,
2013-07-22 01:30:00,64.2,61.2,18.34,ENE,76,0.0,0.0,90,0.00,,,0.00,Wunderground v.1.15,2013-07-22 05:30:00,
2013-07-22 01:35:00,64.2,61.2,18.34,ENE,76,0.0,5.0,90,0.00,,,0.00,Wunderground v.1.15,2013-07-22 05:35:00,
2013-07-22 01:40:00,64.4,61.7,18.34,ENE,76,0.0,5.0,91,0.00,,,0.00,Wunderground v.1.15,2013-07-22 05:40:00,
2013-07-22 01:45:00,64.4,61.7,18.34,ENE,76,0.0,5.0,91,0.00,,,0.00,Wunderground v.1.15,2013-07-22 05:45:00,
2013-07-22 01:50:00,64.3,61.6,18.34,ENE,76,0.0,5.0,91,0.00,,,0.00,Wunderground v.1.15,2013-07-22 05:50:00,
2013-07-22 02:00:00,63.9,61.2,18.34,ENE,76,0.0,0.0,91,0.00,,,0.00,Wunderground v.1.15,2013-07-22 06:00:00,
2013-07-22 02:10:00,63.5,61.1,18.34,ENE,76,0.0,0.0,92,0.00,,,0.00,Wunderground v.1.15,2013-07-22 06:10:00,
2013-07-22 02:20:00,63.2,60.8,18.34,ENE,76,0.0,0.0,92,0.00,,,0.00,Wunderground v.1.15,2013-07-22 06:20:00,
2013-07-22 02:25:00,63.0,60.6,18.34,ENE,76,0.0,0.0,92,0.00,,,0.00,Wunderground v.1.15,2013-07-22 06:25:00,
2013-07-22 02:30:00,62.8,60.4,18.34,ENE,76,0.0,0.0,92,0.00,,,0.00,Wunderground v.1.15,2013-07-22 06:30:00,
2013-07-22 02:35:00,62.7,60.3,18.34,ENE,76,0.0,2.0,92,0.00,,,0.00,Wunderground v.1.15,2013-07-22 06:35:00,
2013-07-22 02:40:00,62.5,60.4,18.34,ENE,76,0.0,2.0,93,0.00,,,0.00,Wunderground v.1.15,2013-07-22 06:40:00,
2013-07-22 02:45:00,62.4,60.3,18.34,ENE,76,0.0,2.0,93,0.00,,,0.00,Wunderground v.1.15,2013-07-22 06:45:00,
2013-07-22 02:50:00,62.5,60.4,18.34,ENE,76,0.0,3.0,93,0.00,,,0.00,Wunderground v.1.15,2013-07-22 06:50:00,
2013-07-22 02:55:00,62.6,60.5,18.34,ENE,75,1.0,3.0,93,0.00,,,0.00,Wunderground v.1.15,2013-07-22 06:55:00,
2013-07-22 03:00:00,62.7,60.6,18.34,NE,47,2.0,3.0,93,0.00,,,0.00,Wunderground v.1.15,2013-07-22 07:00:00,
2013-07-22 03:10:00,62.8,60.4,18.34,NE,47,0.0,0.0,92,0.00,,,0.00,Wunderground v.1.15,2013-07-22 07:10:00,
2013-07-22 03:15:00,62.8,60.4,18.34,NE,47,0.0,0.0,92,0.00,,,0.00,Wunderground v.1.15,2013-07-22 07:15:00,
2013-07-22 03:20:00,62.7,60.3,18.34,NE,47,0.0,0.0,92,0.00,,,0.00,Wunderground v.1.15,2013-07-22 07:20:00,
2013-07-22 03:25:00,62.6,60.2,18.34,NE,47,0.0,0.0,92,0.00,,,0.00,Wunderground v.1.15,2013-07-22 07:25:00,
2013-07-22 03:30:00,62.6,60.2,18.34,NE,47,0.0,0.0,92,0.00,,,0.00,Wunderground v.1.15,2013-07-22 07:30:00,
2013-07-22 03:35:00,62.5,60.1,18.34,NE,47,0.0,0.0,92,0.00,,,0.00,Wunderground v.1.15,2013-07-22 07:35:00,
2013-07-22 03:40:00,62.5,60.1,18.34,NE,47,0.0,0.0,92,0.00,,,0.00,Wunderground v.1.15,2013-07-22 07:40:00,
2013-07-22 03:45:00,62.5,60.4,18.34,NE,47,0.0,0.0,93,0.00,,,0.00,Wunderground v.1.15,2013-07-22 07:45:00,
2013-07-22 03:50:00,62.4,60.3,18.34,NE,47,0.0,0.0,93,0.00,,,0.00,Wunderground v.1.15,2013-07-22 07:50:00,
2013-07-22 04:00:00,62.4,60.3,18.34,NE,47,0.0,0.0,93,0.00,,,0.00,Wunderground v.1.15,2013-07-22 08:00:00,
2013-07-22 04:10:00,62.3,60.2,18.34,NE,47,0.0,0.0,93,0.00,,,0.00,Wunderground v.1.15,2013-07-22 08:10:00,
2013-07-22 04:15:00,62.3,60.2,18.34,NE,47,0.0,0.0,93,0.00,,,0.00,Wunderground v.1.15,2013-07-22 08:15:00,
2013-07-22 04:20:00,62.3,60.2,18.34,NE,47,0.0,0.0,93,0.00,,,0.00,Wunderground v.1.15,2013-07-22 08:20:00,
2013-07-22 04:25:00,62.4,60.3,18.34,NE,47,0.0,0.0,93,0.00,,,0.00,Wunderground v.1.15,2013-07-22 08:25:00,
2013-07-22 04:30:00,62.4,60.3,18.34,NE,47,0.0,0.0,93,0.00,,,0.00,Wunderground v.1.15,2013-07-22 08:30:00,
2013-07-22 04:35:00,62.3,59.9,18.34,NE,47,0.0,0.0,92,0.00,,,0.00,Wunderground v.1.15,2013-07-22 08:35:00,
2013-07-22 04:40:00,62.2,60.2,18.34,NE,47,0.0,0.0,93,0.00,,,0.00,Wunderground v.1.15,2013-07-22 08:40:00,
2013-07-22 04:50:00,62.4,60.3,18.34,NE,47,0.0,0.0,93,0.00,,,0.00,Wunderground v.1.15,2013-07-22 08:50:00,
2013-07-22 04:55:00,62.4,60.3,18.34,NE,47,0.0,0.0,93,0.00,,,0.00,Wunderground v.1.15,2013-07-22 08:55:00,
2013-07-22 05:00:00,62.3,60.2,18.34,NE,47,0.0,0.0,93,0.00,,,0.00,Wunderground v.1.15,2013-07-22 09:00:00,
2013-07-22 05:10:00,62.4,60.3,18.34,NE,47,0.0,0.0,93,0.00,,,0.00,Wunderground v.1.15,2013-07-22 09:10:00,
2013-07-22 05:20:00,62.3,60.2,18.34,NE,47,0.0,0.0,93,0.00,,,0.00,Wunderground v.1.15,2013-07-22 09:20:00,
2013-07-22 05:25:00,62.2,60.2,18.34,NE,47,0.0,0.0,93,0.00,,,0.00,Wunderground v.1.15,2013-07-22 09:25:00,
2013-07-22 05:30:00,62.2,60.2,18.34,NE,47,0.0,0.0,93,0.00,,,0.00,Wunderground v.1.15,2013-07-22 09:30:00,
2013-07-22 05:35:00,62.1,60.1,18.34,NE,47,0.0,0.0,93,0.00,,,0.00,Wunderground v.1.15,2013-07-22 09:35:00,
2013-07-22 05:40:00,62.2,60.5,18.34,NE,47,0.0,0.0,94,0.00,,,0.00,Wunderground v.1.15,2013-07-22 09:40:00,
2013-07-22 05:50:00,62.0,60.3,18.34,NE,47,0.0,0.0,94,0.00,,,0.00,Wunderground v.1.15,2013-07-22 09:50:00,
2013-07-22 05:55:00,61.8,59.8,18.34,NE,47,0.0,0.0,93,0.00,,,0.00,Wunderground v.1.15,2013-07-22 09:55:00,
2013-07-22 06:00:00,61.5,59.5,18.34,NE,47,0.0,0.0,93,0.00,,,0.00,Wunderground v.1.15,2013-07-22 10:00:00,
2013-07-22 06:10:00,61.4,59.7,18.34,NE,47,0.0,0.0,94,0.00,,,0.00,Wunderground v.1.15,2013-07-22 10:10:00,
2013-07-22 06:20:00,61.4,59.7,18.34,NE,47,0.0,0.0,94,0.00,,,0.00,Wunderground v.1.15,2013-07-22 10:20:00,
2013-07-22 06:25:00,61.2,59.5,18.34,NE,47,0.0,0.0,94,0.00,,,0.00,Wunderground v.1.15,2013-07-22 10:25:00,
2013-07-22 06:30:00,61.2,59.5,18.34,NE,47,0.0,0.0,94,0.00,,,0.00,Wunderground v.1.15,2013-07-22 10:30:00,
2013-07-22 06:35:00,61.1,59.4,18.34,NE,47,0.0,1.0,94,0.00,,,0.00,Wunderground v.1.15,2013-07-22 10:35:00,
2013-07-22 06:40:00,61.2,59.5,18.34,NE,47,0.0,1.0,94,0.00,,,0.00,Wunderground v.1.15,2013-07-22 10:40:00,
2013-07-22 06:45:00,61.4,59.7,18.34,NE,47,0.0,1.0,94,0.00,,,0.00,Wunderground v.1.15,2013-07-22 10:45:00,
2013-07-22 06:55:00,61.8,60.1,18.34,NE,47,0.0,1.0,94,0.00,,,0.00,Wunderground v.1.15,2013-07-22 10:55:00,
2013-07-22 07:00:00,62.0,60.3,18.34,NE,47,0.0,0.0,94,0.00,,,0.00,Wunderground v.1.15,2013-07-22 11:00:00,
2013-07-22 07:10:00,62.6,60.8,18.34,NE,47,0.0,0.0,94,0.00,,,0.00,Wunderground v.1.15,2013-07-22 11:10:00,
2013-07-22 07:15:00,62.8,61.0,18.34,NE,47,0.0,0.0,94,0.00,,,0.00,Wunderground v.1.15,2013-07-22 11:15:00,
2013-07-22 07:25:00,63.6,61.8,18.34,NE,47,0.0,0.0,94,0.00,,,0.00,Wunderground v.1.15,2013-07-22 11:25:00,
2013-07-22 07:30:00,64.0,62.2,18.34,NE,47,0.0,0.0,94,0.00,,,0.00,Wunderground v.1.15,2013-07-22 11:30:00,
2013-07-22 07:35:00,64.1,62.3,18.34,NE,47,0.0,0.0,94,0.00,,,0.00,Wunderground v.1.15,2013-07-22 11:35:00,
2013-07-22 07:40:00,64.4,62.6,18.34,NE,47,0.0,0.0,94,0.00,,,0.00,Wunderground v.1.15,2013-07-22 11:40:00,
2013-07-22 07:45:00,64.6,62.8,18.34,NE,47,1.0,1.0,94,0.00,,,0.00,Wunderground v.1.15,2013-07-22 11:45:00,
2013-07-22 07:50:00,64.8,62.7,18.34,NE,47,2.0,2.0,93,0.00,,,0.00,Wunderground v.1.15,2013-07-22 11:50:00,
2013-07-22 08:00:00,64.8,62.7,18.34,NE,47,2.0,3.0,93,0.00,,,0.00,Wunderground v.1.15,2013-07-22 12:00:00,
2013-07-22 08:10:00,64.9,62.8,18.34,NE,47,1.0,1.0,93,0.00,,,0.00,Wunderground v.1.15,2013-07-22 12:10:00,
2013-07-22 08:15:00,65.0,62.9,18.34,NE,47,0.0,1.0,93,0.00,,,0.00,Wunderground v.1.15,2013-07-22 12:15:00,
2013-07-22 08:20:00,65.2,63.1,18.34,NE,47,0.0,0.0,93,0.00,,,0.00,Wunderground v.1.15,2013-07-22 12:20:00,
2013-07-22 08:30:00,65.6,63.2,18.34,NE,47,0.0,0.0,92,0.00,,,0.00,Wunderground v.1.15,2013-07-22 12:30:00,
2013-07-22 08:35:00,65.9,63.8,18.34,NE,47,0.0,1.0,93,0.00,,,0.00,Wunderground v.1.15,2013-07-22 12:35:00,
2013-07-22 08:40:00,66.3,63.9,18.34,NE,47,0.0,1.0,92,0.00,,,0.00,Wunderground v.1.15,2013-07-22 12:40:00,
2013-07-22 08:45:00,66.7,64.3,18.34,NE,47,1.0,1.0,92,0.00,,,0.00,Wunderground v.1.15,2013-07-22 12:45:00,
2013-07-22 08:50:00,67.0,64.3,18.34,NE,47,1.0,1.0,91,0.00,,,0.00,Wunderground v.1.15,2013-07-22 12:50:00,
2013-07-22 08:55:00,67.8,65.1,18.34,NE,47,0.0,1.0,91,0.00,,,0.00,Wunderground v.1.15,2013-07-22 12:55:00,
2013-07-22 09:00:00,68.3,65.3,18.34,NE,47,0.0,1.0,90,0.00,,,0.00,Wunderground v.1.15,2013-07-22 13:00:00,
2013-07-22 09:10:00,69.0,65.6,18.34,NE,47,0.0,0.0,89,0.00,,,0.00,Wunderground v.1.15,2013-07-22 13:10:00,
2013-07-22 09:15:00,69.2,65.5,18.34,NE,47,0.0,0.0,88,0.00,,,0.00,Wunderground v.1.15,2013-07-22 13:15:00,
2013-07-22 09:20:00,69.2,65.2,18.34,NE,47,0.0,0.0,87,0.00,,,0.00,Wunderground v.1.15,2013-07-22 13:20:00,
2013-07-22 09:25:00,69.4,65.4,18.34,NE,47,0.0,0.0,87,0.00,,,0.00,Wunderground v.1.15,2013-07-22 13:25:00,
2013-07-22 09:35:00,69.9,65.5,18.34,NE,47,0.0,4.0,86,0.00,,,0.00,Wunderground v.1.15,2013-07-22 13:35:00,
2013-07-22 09:40:00,70.0,65.6,18.34,NE,47,0.0,4.0,86,0.00,,,0.00,Wunderground v.1.15,2013-07-22 13:40:00,
2013-07-22 09:45:00,70.1,65.7,18.34,NE,47,0.0,4.0,86,0.00,,,0.00,Wunderground v.1.15,2013-07-22 13:45:00,
2013-07-22 09:50:00,70.6,66.2,18.34,NE,47,1.0,1.0,86,0.00,,,0.00,Wunderground v.1.15,2013-07-22 13:50:00,
2013-07-22 09:55:00,70.8,66.4,18.34,NE,47,1.0,2.0,86,0.00,,,0.00,Wunderground v.1.15,2013-07-22 13:55:00,
2013-07-22 10:00:00,71.0,65.9,18.34,NE,52,1.0,1.0,84,0.00,,,0.00,Wunderground v.1.15,2013-07-22 14:00:00,
2013-07-22 10:10:00,71.5,66.4,18.34,NE,52,0.0,0.0,84,0.00,,,0.00,Wunderground v.1.15,2013-07-22 14:10:00,
2013-07-22 10:15:00,72.0,66.9,18.34,NE,51,0.0,1.0,84,0.00,,,0.00,Wunderground v.1.15,2013-07-22 14:15:00,
2013-07-22 10:20:00,72.1,66.6,18.34,NE,51,1.0,1.0,83,0.00,,,0.00,Wunderground v.1.15,2013-07-22 14:20:00,
2013-07-22 10:25:00,72.2,66.7,18.34,NE,53,2.0,2.0,83,0.00,,,0.00,Wunderground v.1.15,2013-07-22 14:25:00,
2013-07-22 10:30:00,72.3,66.8,18.34,East,87,1.0,6.0,83,0.00,,,0.00,Wunderground v.1.15,2013-07-22 14:30:00,
2013-07-22 10:35:00,72.3,67.2,18.34,East,86,2.0,6.0,84,0.00,,,0.00,Wunderground v.1.15,2013-07-22 14:35:00,
2013-07-22 10:40:00,72.4,66.9,18.34,East,86,2.0,2.0,83,0.00,,,0.00,Wunderground v.1.15,2013-07-22 14:40:00,
2013-07-22 10:45:00,72.6,67.1,18.34,East,89,2.0,4.0,83,0.00,,,0.00,Wunderground v.1.15,2013-07-22 14:45:00,
2013-07-22 10:50:00,72.7,67.2,18.34,East,87,3.0,3.0,83,0.00,,,0.00,Wunderground v.1.15,2013-07-22 14:50:00,
2013-07-22 10:55:00,73.0,67.9,18.34,East,81,3.0,4.0,84,0.00,,,0.00,Wunderground v.1.15,2013-07-22 14:55:00,
2013-07-22 11:00:00,73.4,67.9,18.34,ENE,61,4.0,5.0,83,0.00,,,0.00,Wunderground v.1.15,2013-07-22 15:00:00,
2013-07-22 11:10:00,73.6,68.1,18.34,ENE,72,4.0,4.0,83,0.00,,,0.00,Wunderground v.1.15,2013-07-22 15:10:00,
2013-07-22 11:15:00,73.7,67.9,18.34,East,81,4.0,4.0,82,0.00,,,0.00,Wunderground v.1.15,2013-07-22 15:15:00,
2013-07-22 11:20:00,73.9,68.1,18.34,East,82,4.0,4.0,82,0.00,,,0.00,Wunderground v.1.15,2013-07-22 15:20:00,
2013-07-22 11:25:00,74.1,68.6,18.34,East,86,3.0,4.0,83,0.00,,,0.00,Wunderground v.1.15,2013-07-22 15:25:00,
2013-07-22 11:30:00,74.2,68.3,18.34,East,86,3.0,5.0,82,0.00,,,0.00,Wunderground v.1.15,2013-07-22 15:30:00,
2013-07-22 11:35:00,74.3,68.4,18.34,East,82,3.0,7.0,82,0.00,,,0.00,Wunderground v.1.15,2013-07-22 15:35:00,
2013-07-22 11:40:00,74.4,68.9,18.34,ENE,77,3.0,3.0,83,0.00,,,0.00,Wunderground v.1.15,2013-07-22 15:40:00,
2013-07-22 11:45:00,74.5,68.6,18.34,East,82,3.0,7.0,82,0.00,,,0.00,Wunderground v.1.15,2013-07-22 15:45:00,
2013-07-22 11:55:00,74.8,68.9,18.34,ENE,74,2.0,3.0,82,0.00,,,0.00,Wunderground v.1.15,2013-07-22 15:55:00,
2013-07-22 12:00:00,75.0,69.1,18.34,ENE,76,3.0,3.0,82,0.00,,,0.00,Wunderground v.1.15,2013-07-22 16:00:00,
2013-07-22 12:10:00,75.4,69.9,18.34,ENE,67,3.0,3.0,83,0.00,,,0.00,Wunderground v.1.15,2013-07-22 16:10:00,
2013-07-22 12:20:00,76.1,69.8,18.34,ENE,60,0.0,0.0,81,0.00,,,0.00,Wunderground v.1.15,2013-07-22 16:20:00,
2013-07-22 12:25:00,76.5,70.2,18.34,ENE,62,0.0,3.0,81,0.00,,,0.00,Wunderground v.1.15,2013-07-22 16:25:00,
2013-07-22 12:30:00,76.8,70.5,18.34,NE,53,1.0,6.0,81,0.00,,,0.00,Wunderground v.1.15,2013-07-22 16:30:00,
2013-07-22 12:35:00,77.3,69.5,18.34,ENE,65,3.0,9.0,77,0.00,,,0.00,Wunderground v.1.15,2013-07-22 16:35:00,
2013-07-22 12:40:00,77.5,69.3,18.34,East,83,4.0,4.0,76,0.00,,,0.00,Wunderground v.1.15,2013-07-22 16:40:00,
2013-07-22 12:45:00,77.5,69.3,18.34,ENE,59,4.0,5.0,76,0.00,,,0.00,Wunderground v.1.15,2013-07-22 16:45:00,
2013-07-22 12:50:00,77.4,69.2,18.34,East,86,4.0,9.0,76,0.00,,,0.00,Wunderground v.1.15,2013-07-22 16:50:00,
2013-07-22 13:00:00,77.3,69.5,18.34,East,82,3.0,3.0,77,0.00,,,0.00,Wunderground v.1.15,2013-07-22 17:00:00,
2013-07-22 13:10:00,77.4,69.6,18.34,East,83,2.0,5.0,77,0.00,,,0.00,Wunderground v.1.15,2013-07-22 17:10:00,
2013-07-22 13:15:00,77.6,69.8,18.34,ENE,78,3.0,5.0,77,0.00,,,0.00,Wunderground v.1.15,2013-07-22 17:15:00,
2013-07-22 13:20:00,77.8,70.4,18.34,ENE,77,3.0,4.0,78,0.00,,,0.00,Wunderground v.1.15,2013-07-22 17:20:00,
2013-07-22 13:30:00,78.3,70.1,18.34,ENE,77,1.0,1.0,76,0.00,,,0.00,Wunderground v.1.15,2013-07-22 17:30:00,
2013-07-22 13:35:00,78.7,70.5,18.34,ENE,77,1.0,8.0,76,0.00,,,0.00,Wunderground v.1.15,2013-07-22 17:35:00,
2013-07-22 13:40:00,78.4,69.8,18.34,East,80,2.0,8.0,75,0.00,,,0.00,Wunderground v.1.15,2013-07-22 17:40:00,
2013-07-22 13:45:00,78.2,70.4,18.34,East,80,2.0,8.0,77,0.00,,,0.00,Wunderground v.1.15,2013-07-22 17:45:00,
2013-07-22 13:50:00,78.2,69.6,18.34,ENE,78,2.0,8.0,75,0.00,,,0.00,Wunderground v.1.15,2013-07-22 17:50:00,
2013-07-22 14:05:00,78.4,71.0,18.34,ENE,76,1.0,2.0,78,0.00,,,0.00,Wunderground v.1.15,2013-07-22 18:05:00,
2013-07-22 14:10:00,78.7,70.9,18.34,ENE,77,1.0,1.0,77,0.00,,,0.00,Wunderground v.1.15,2013-07-22 18:10:00,
2013-07-22 14:15:00,78.8,71.0,18.34,ENE,76,1.0,1.0,77,0.00,,,0.00,Wunderground v.1.15,2013-07-22 18:15:00,
2013-07-22 14:20:00,78.7,70.9,18.34,ENE,76,1.0,1.0,77,0.00,,,0.00,Wunderground v.1.15,2013-07-22 18:20:00,
2013-07-22 14:25:00,78.8,71.0,18.34,ENE,76,1.0,2.0,77,0.00,,,0.00,Wunderground v.1.15,2013-07-22 18:25:00,
2013-07-22 14:30:00,78.6,70.8,18.34,ENE,76,1.0,1.0,77,0.00,,,0.00,Wunderground v.1.15,2013-07-22 18:30:00,
2013-07-22 14:50:00,79.1,71.3,18.34,East,81,0.0,9.0,77,0.00,,,0.00,Wunderground v.1.15,2013-07-22 18:50:00,
2013-07-22 15:00:00,78.8,71.0,18.34,East,81,0.0,0.0,77,0.00,,,0.00,Wunderground v.1.15,2013-07-22 19:00:00,
2013-07-22 15:10:00,78.9,71.1,18.34,East,82,0.0,0.0,77,0.00,,,0.00,Wunderground v.1.15,2013-07-22 19:10:00,
2013-07-22 15:25:00,79.4,71.2,18.34,East,95,0.0,0.0,76,0.00,,,0.00,Wunderground v.1.15,2013-07-22 19:25:00,
2013-07-22 15:30:00,79.6,70.6,18.34,East,95,0.0,0.0,74,0.00,,,0.00,Wunderground v.1.15,2013-07-22 19:30:00,
2013-07-22 15:35:00,79.9,71.3,18.34,East,95,0.0,0.0,75,0.00,,,0.00,Wunderground v.1.15,2013-07-22 19:35:00,
2013-07-22 15:40:00,79.8,71.2,18.34,East,95,0.0,0.0,75,0.00,,,0.00,Wunderground v.1.15,2013-07-22 19:40:00,
2013-07-22 15:45:00,80.0,72.1,18.34,SE,139,1.0,1.0,77,0.00,,,0.00,Wunderground v.1.15,2013-07-22 19:45:00,
2013-07-22 15:55:00,80.3,72.0,18.34,South,171,1.0,1.0,76,0.00,,,0.00,Wunderground v.1.15,2013-07-22 19:55:00,
2013-07-22 16:00:00,80.4,72.5,18.34,South,180,0.0,1.0,77,0.00,,,0.00,Wunderground v.1.15,2013-07-22 20:00:00,
2013-07-22 16:10:00,80.3,72.8,18.34,SSW,199,1.0,4.0,78,0.00,,,0.00,Wunderground v.1.15,2013-07-22 20:10:00,
2013-07-22 16:15:00,79.8,71.9,18.34,WSW,241,2.0,4.0,77,0.00,,,0.00,Wunderground v.1.15,2013-07-22 20:15:00,
2013-07-22 16:20:00,79.5,72.4,18.34,WSW,254,2.0,6.0,79,0.00,,,0.00,Wunderground v.1.15,2013-07-22 20:20:00,
2013-07-22 16:25:00,79.0,71.9,18.34,WSW,255,2.0,6.0,79,0.00,,,0.00,Wunderground v.1.15,2013-07-22 20:25:00,
2013-07-22 16:30:00,78.6,71.9,18.34,WSW,255,2.0,2.0,80,0.00,,,0.00,Wunderground v.1.15,2013-07-22 20:30:00,
2013-07-22 16:35:00,78.3,71.6,18.34,WSW,257,1.0,3.0,80,0.00,,,0.00,Wunderground v.1.15,2013-07-22 20:35:00,
2013-07-22 16:40:00,78.4,72.1,18.34,WSW,257,1.0,1.0,81,0.00,,,0.00,Wunderground v.1.15,2013-07-22 20:40:00,
2013-07-22 16:45:00,78.3,72.0,18.34,WSW,257,1.0,3.0,81,0.00,,,0.00,Wunderground v.1.15,2013-07-22 20:45:00,
2013-07-22 16:50:00,78.2,71.9,18.34,WSW,257,1.0,1.0,81,0.00,,,0.00,Wunderground v.1.15,2013-07-22 20:50:00,
2013-07-22 16:55:00,77.3,69.5,18.34,NE,48,2.0,7.0,77,0.00,,,0.00,Wunderground v.1.15,2013-07-22 20:55:00,
2013-07-22 17:00:00,75.8,68.4,18.34,NNE,20,5.0,5.0,78,0.00,,,0.00,Wunderground v.1.15,2013-07-22 21:00:00,
2013-07-22 17:10:00,74.5,67.9,18.34,NE,38,2.0,2.0,80,0.00,,,0.00,Wunderground v.1.15,2013-07-22 21:10:00,
2013-07-22 17:15:00,74.2,67.3,18.34,NE,46,1.0,4.0,79,0.00,,,0.00,Wunderground v.1.15,2013-07-22 21:15:00,
2013-07-22 17:20:00,73.9,67.7,18.34,NE,51,2.0,2.0,81,0.00,,,0.00,Wunderground v.1.15,2013-07-22 21:20:00,
2013-07-22 17:30:00,73.7,67.5,18.34,NE,51,0.0,0.0,81,0.00,,,0.00,Wunderground v.1.15,2013-07-22 21:30:00,
2013-07-22 17:35:00,73.5,66.9,18.34,NE,51,0.0,8.0,80,0.00,,,0.00,Wunderground v.1.15,2013-07-22 21:35:00,
2013-07-22 17:40:00,73.7,67.9,18.34,NE,51,0.0,8.0,82,0.00,,,0.00,Wunderground v.1.15,2013-07-22 21:40:00,
2013-07-22 17:45:00,73.5,68.4,18.34,NE,51,0.0,8.0,84,0.00,,,0.00,Wunderground v.1.15,2013-07-22 21:45:00,
2013-07-22 17:50:00,73.2,68.4,18.34,NNE,20,0.0,8.0,85,0.00,,,0.01,Wunderground v.1.15,2013-07-22 21:50:00,
2013-07-22 17:55:00,73.1,68.7,18.34,NNE,20,0.0,8.0,86,0.00,,,0.01,Wunderground v.1.15,2013-07-22 21:55:00,
2013-07-22 18:00:00,73.1,69.0,18.34,NNE,20,0.0,0.0,87,0.00,,,0.01,Wunderground v.1.15,2013-07-22 22:00:00,
2013-07-22 18:10:00,72.6,68.2,18.34,NNE,20,0.0,0.0,86,0.00,,,0.01,Wunderground v.1.15,2013-07-22 22:10:00,
2013-07-22 18:15:00,72.5,68.1,18.34,NNE,20,0.0,0.0,86,0.00,,,0.01,Wunderground v.1.15,2013-07-22 22:15:00,
2013-07-22 18:20:00,72.4,68.0,18.34,NNE,20,0.0,0.0,86,0.00,,,0.01,Wunderground v.1.15,2013-07-22 22:20:00,
2013-07-22 18:25:00,72.4,68.0,18.34,NNE,20,0.0,0.0,86,0.00,,,0.01,Wunderground v.1.15,2013-07-22 22:25:00,
2013-07-22 18:30:00,72.4,68.3,18.34,NNE,20,0.0,0.0,87,0.00,,,0.01,Wunderground v.1.15,2013-07-22 22:30:00,
2013-07-22 18:40:00,72.0,67.6,18.34,NNE,20,0.0,10.0,86,0.00,,,0.01,Wunderground v.1.15,2013-07-22 22:40:00,
2013-07-22 18:45:00,71.7,67.3,18.34,NNE,20,0.0,10.0,86,0.00,,,0.01,Wunderground v.1.15,2013-07-22 22:45:00,
2013-07-22 18:50:00,71.7,67.3,18.34,NNE,20,0.0,10.0,86,0.00,,,0.01,Wunderground v.1.15,2013-07-22 22:50:00,
2013-07-22 18:55:00,71.7,67.3,18.34,NNE,20,0.0,10.0,86,0.00,,,0.01,Wunderground v.1.15,2013-07-22 22:55:00,
2013-07-22 19:00:00,71.5,67.1,18.34,NNE,20,0.0,0.0,86,0.00,,,0.01,Wunderground v.1.15,2013-07-22 23:00:00,
2013-07-22 19:10:00,71.6,67.2,18.34,NNE,20,0.0,0.0,86,0.00,,,0.01,Wunderground v.1.15,2013-07-22 23:10:00,
2013-07-22 19:15:00,71.5,67.1,18.34,NNE,20,0.0,0.0,86,0.00,,,0.01,Wunderground v.1.15,2013-07-22 23:15:00,
2013-07-22 19:20:00,71.5,67.1,18.34,NNE,20,0.0,0.0,86,0.00,,,0.01,Wunderground v.1.15,2013-07-22 23:20:00,
2013-07-22 19:25:00,71.5,67.1,18.34,NNE,20,0.0,0.0,86,0.00,,,0.01,Wunderground v.1.15,2013-07-22 23:25:00,
2013-07-22 19:30:00,71.4,67.3,18.34,NNE,23,0.0,3.0,87,0.00,,,0.01,Wunderground v.1.15,2013-07-22 23:30:00,
2013-07-22 19:40:00,70.9,67.5,18.34,NE,43,4.0,4.0,89,0.00,,,0.01,Wunderground v.1.15,2013-07-22 23:40:00,
2013-07-22 19:45:00,70.4,67.0,18.34,NE,40,2.0,6.0,89,0.00,,,0.01,Wunderground v.1.15,2013-07-22 23:45:00,
2013-07-22 19:55:00,69.9,66.5,18.34,NNE,24,1.0,3.0,89,0.00,,,0.01,Wunderground v.1.15,2013-07-22 23:55:00,
2013-07-22 20:00:00,69.9,66.5,18.34,NNE,24,0.0,0.0,89,0.00,,,0.01,Wunderground v.1.15,2013-07-23 00:00:00,
2013-07-22 20:10:00,70.1,66.7,18.34,NNE,24,1.0,1.0,89,0.00,,,0.01,Wunderground v.1.15,2013-07-23 00:10:00,
2013-07-22 20:20:00,70.1,66.7,18.34,NNE,24,0.0,0.0,89,0.00,,,0.01,Wunderground v.1.15,2013-07-23 00:20:00,
2013-07-22 20:25:00,70.1,66.7,18.34,NNE,24,0.0,0.0,89,0.00,,,0.01,Wunderground v.1.15,2013-07-23 00:25:00,
2013-07-22 20:30:00,70.0,66.9,18.34,NNE,24,0.0,0.0,90,0.00,,,0.01,Wunderground v.1.15,2013-07-23 00:30:00,
2013-07-22 20:35:00,69.9,66.8,18.34,NNE,24,0.0,5.0,90,0.00,,,0.01,Wunderground v.1.15,2013-07-23 00:35:00,
2013-07-22 20:40:00,69.8,66.7,18.34,NNE,24,0.0,5.0,90,0.00,,,0.01,Wunderground v.1.15,2013-07-23 00:40:00,
2013-07-22 20:45:00,69.7,67.0,18.34,NNE,24,0.0,5.0,91,0.00,,,0.01,Wunderground v.1.15,2013-07-23 00:45:00,
2013-07-22 20:55:00,69.4,67.0,18.34,NNE,24,0.0,5.0,92,0.00,,,0.02,Wunderground v.1.15,2013-07-23 00:55:00,
2013-07-22 21:00:00,69.2,66.8,18.34,NNE,24,0.0,0.0,92,0.00,,,0.02,Wunderground v.1.15,2013-07-23 01:00:00,
2013-07-22 21:10:00,69.1,66.7,18.34,NNE,24,0.0,0.0,92,0.04,,,0.03,Wunderground v.1.15,2013-07-23 01:10:00,
2013-07-22 21:15:00,69.2,67.1,18.34,NNE,24,0.0,0.0,93,0.04,,,0.03,Wunderground v.1.15,2013-07-23 01:15:00,
2013-07-22 21:20:00,69.2,67.1,18.34,NNE,24,0.0,0.0,93,0.04,,,0.03,Wunderground v.1.15,2013-07-23 01:20:00,
2013-07-22 21:25:00,69.2,67.1,18.34,NNE,24,0.0,1.0,93,0.00,,,0.03,Wunderground v.1.15,2013-07-23 01:25:00,
2013-07-22 21:30:00,69.1,67.0,18.34,NNE,24,0.0,0.0,93,0.00,,,0.03,Wunderground v.1.15,2013-07-23 01:30:00,
2013-07-22 21:35:00,68.9,66.8,18.34,NNE,24,0.0,0.0,93,0.00,,,0.03,Wunderground v.1.15,2013-07-23 01:35:00,
2013-07-22 21:40:00,68.8,66.7,18.34,NNE,24,0.0,0.0,93,0.00,,,0.03,Wunderground v.1.15,2013-07-23 01:40:00,
2013-07-22 21:45:00,68.7,66.6,18.34,NNE,24,0.0,0.0,93,0.00,,,0.03,Wunderground v.1.15,2013-07-23 01:45:00,
2013-07-22 21:50:00,68.8,66.7,18.34,NNE,24,1.0,1.0,93,0.00,,,0.03,Wunderground v.1.15,2013-07-23 01:50:00,
2013-07-22 22:00:00,68.8,67.0,18.34,NE,41,3.0,3.0,94,0.00,,,0.03,Wunderground v.1.15,2013-07-23 02:00:00,
2013-07-22 22:10:00,68.7,66.9,18.34,NE,41,1.0,3.0,94,0.00,,,0.03,Wunderground v.1.15,2013-07-23 02:10:00,
2013-07-22 22:15:00,68.7,66.9,18.34,NE,41,1.0,3.0,94,0.00,,,0.03,Wunderground v.1.15,2013-07-23 02:15:00,
2013-07-22 22:20:00,68.6,66.8,18.34,NE,41,0.0,0.0,94,0.00,,,0.03,Wunderground v.1.15,2013-07-23 02:20:00,
2013-07-22 22:25:00,68.6,66.8,18.34,NE,41,0.0,5.0,94,0.00,,,0.03,Wunderground v.1.15,2013-07-23 02:25:00,
2013-07-22 22:35:00,68.5,66.7,18.34,NE,41,1.0,1.0,94,0.00,,,0.03,Wunderground v.1.15,2013-07-23 02:35:00,
2013-07-22 22:40:00,68.4,66.6,18.34,NE,49,1.0,1.0,94,0.00,,,0.03,Wunderground v.1.15,2013-07-23 02:40:00,
2013-07-22 22:45:00,68.4,66.6,18.34,NE,49,1.0,3.0,94,0.00,,,0.03,Wunderground v.1.15,2013-07-23 02:45:00,
2013-07-22 22:50:00,68.3,66.5,18.34,NE,51,2.0,3.0,94,0.00,,,0.03,Wunderground v.1.15,2013-07-23 02:50:00,
2013-07-22 22:55:00,68.4,66.6,18.34,NE,51,3.0,3.0,94,0.00,,,0.04,Wunderground v.1.15,2013-07-23 02:55:00,
2013-07-22 23:00:00,68.4,66.6,18.34,NE,51,2.0,2.0,94,0.00,,,0.04,Wunderground v.1.15,2013-07-23 03:00:00,
2013-07-22 23:10:00,68.3,66.5,18.34,NE,49,2.0,2.0,94,0.08,,,0.05,Wunderground v.1.15,2013-07-23 03:10:00,
2013-07-22 23:15:00,68.2,66.4,18.34,NE,49,2.0,2.0,94,0.05,,,0.05,Wunderground v.1.15,2013-07-23 03:15:00,
2013-07-22 23:20:00,68.1,66.3,18.34,NE,49,1.0,1.0,94,0.04,,,0.06,Wunderground v.1.15,2013-07-23 03:20:00,
2013-07-22 23:25:00,68.0,66.2,18.34,NE,49,0.0,1.0,94,0.04,,,0.06,Wunderground v.1.15,2013-07-23 03:25:00,
2013-07-22 23:30:00,67.9,66.1,18.34,NE,49,0.0,0.0,94,0.06,,,0.07,Wunderground v.1.15,2013-07-23 03:30:00,
2013-07-22 23:40:00,67.9,66.1,18.34,NE,49,0.0,5.0,94,0.05,,,0.07,Wunderground v.1.15,2013-07-23 03:40:00,
2013-07-22 23:45:00,67.9,66.1,18.34,NE,49,1.0,5.0,94,0.00,,,0.07,Wunderground v.1.15,2013-07-23 03:45:00,
2013-07-22 23:50:00,67.8,66.0,18.34,NE,49,1.0,1.0,94,0.00,,,0.07,Wunderground v.1.15,2013-07-23 03:50:00,
2013-07-22 23:55:00,67.7,65.9,18.34,NE,49,0.0,5.0,94,0.00,,,0.07,Wunderground v.1.15,2013-07-23 03:55:00,